Time;durP1;ratioP1;P1;durP2;ratioP2;P2;SDS_P1;SDS_P2;PMS_P1;PMS_P2;Temp;Humidity;BMP_temperature;BMP_pressure;BME280_temperature;BME280_humidity;BME280_pressure;Samples;Min_cycle;Max_cycle;Signal;HPM_P1;HPM_P2
2022/04/14 00:01:40;;;;;;;8.38;5.40;;;;;;;9.81;97.16;100637.25;5054101;28;20648;-77
2022/04/14 00:04:07;;;;;;;8.63;5.35;;;;;;;9.62;96.64;100624.63;5054142;28;20195;-79
2022/04/14 00:06:34;;;;;;;9.98;5.70;;;;;;;9.52;94.33;100622.63;5054220;28;20207;-79
2022/04/14 00:09:01;;;;;;;12.32;5.78;;;;;;;9.54;96.73;100644.22;5018914;28;20204;-79
2022/04/14 00:11:28;;;;;;;9.50;5.60;;;;;;;9.47;99.13;100645.78;5053711;28;20655;-78
2022/04/14 00:13:55;;;;;;;6.13;5.45;;;;;;;9.37;100.00;100649.81;5053065;28;20234;-79
2022/04/14 00:16:22;;;;;;;6.00;5.22;;;;;;;9.24;100.00;100642.50;5053211;28;20664;-78
2022/04/14 00:18:51;;;;;;;5.40;4.90;;;;;;;9.16;100.00;100651.78;5017632;28;20199;-78
2022/04/14 00:21:18;;;;;;;7.45;4.95;;;;;;;9.09;100.00;100651.56;5055147;28;20207;-79
2022/04/14 00:23:45;;;;;;;8.00;5.18;;;;;;;9.05;100.00;100653.16;5073831;28;20248;-78
2022/04/14 00:26:12;;;;;;;7.82;5.63;;;;;;;8.97;100.00;100646.88;5073892;28;20204;-78
2022/04/14 00:28:39;;;;;;;9.07;5.72;;;;;;;8.87;100.00;100639.69;5073476;28;20198;-80
2022/04/14 00:31:06;;;;;;;9.93;6.50;;;;;;;8.78;100.00;100649.72;5073066;28;20577;-78
2022/04/14 00:33:33;;;;;;;19.27;7.35;;;;;;;8.51;100.00;100604.94;5072701;28;20924;-79
2022/04/14 00:36:01;;;;;;;9.02;6.57;;;;;;;8.68;100.00;100652.84;5073286;28;20205;-79
2022/04/14 00:38:28;;;;;;;8.93;6.70;;;;;;;8.59;100.00;100647.41;5073269;28;20195;-78
2022/04/14 00:40:55;;;;;;;13.15;6.53;;;;;;;8.66;100.00;100651.94;5072935;28;20199;-79
2022/04/14 00:43:30;;;;;;;12.88;7.05;;;;;;;8.80;100.00;100654.13;5073279;28;20207;-78
2022/04/14 00:45:57;;;;;;;12.35;5.70;;;;;;;8.83;100.00;100658.50;5073588;28;20198;-78
2022/04/14 00:48:24;;;;;;;9.82;6.03;;;;;;;8.55;100.00;100648.13;5053401;28;20207;-79
2022/04/14 00:50:51;;;;;;;8.50;5.72;;;;;;;8.63;100.00;100657.03;5053094;28;20196;-78
2022/04/14 00:53:21;;;;;;;7.40;5.43;;;;;;;8.58;100.00;100656.88;5053375;28;20235;-79
2022/04/14 00:55:48;;;;;;;7.63;6.28;;;;;;;8.59;100.00;100660.34;5053293;28;20664;-79
2022/04/14 00:58:15;;;;;;;9.23;7.13;;;;;;;8.50;100.00;100647.09;5053558;28;20196;-78
2022/04/14 01:00:42;;;;;;;6.40;5.57;;;;;;;8.39;100.00;100646.75;5073124;28;20202;-79
2022/04/14 01:03:10;;;;;;;8.27;6.40;;;;;;;8.01;100.00;100588.66;5073215;28;20211;-78
2022/04/14 01:05:37;;;;;;;8.82;6.25;;;;;;;8.33;100.00;100647.44;5072903;28;20198;-78
2022/04/14 01:08:06;;;;;;;12.43;6.10;;;;;;;8.35;100.00;100648.34;5054298;28;20191;-78
2022/04/14 01:10:36;;;;;;;8.48;6.38;;;;;;;8.37;100.00;100651.88;5072861;28;20244;-78
2022/04/14 01:13:03;;;;;;;11.07;6.72;;;;;;;8.21;100.00;100639.25;5073029;28;20311;-77
2022/04/14 01:15:30;;;;;;;7.90;6.50;;;;;;;7.92;100.00;100622.75;5073083;28;20202;-79
2022/04/14 01:17:56;;;;;;;9.90;6.97;;;;;;;7.97;100.00;100643.59;5072916;28;20202;-79
2022/04/14 01:20:23;;;;;;;7.90;6.32;;;;;;;7.92;100.00;100650.28;5072971;28;20620;-78
2022/04/14 01:22:56;;;;;;;15.60;7.28;;;;;;;7.81;100.00;100620.66;5037501;28;20772;-79
2022/04/14 01:25:25;;;;;;;9.23;6.78;;;;;;;7.97;100.00;100644.47;5072925;28;20206;-78
2022/04/14 01:27:52;;;;;;;8.60;6.95;;;;;;;7.82;100.00;100623.28;5072660;28;20225;-78
2022/04/14 01:30:19;;;;;;;9.82;6.55;;;;;;;8.08;100.00;100643.94;5072597;28;20698;-77
2022/04/14 01:32:46;;;;;;;8.55;6.63;;;;;;;7.99;100.00;100652.25;5072842;28;20226;-78
2022/04/14 01:35:13;;;;;;;7.82;6.05;;;;;;;7.90;100.00;100652.81;5068407;28;20311;-83
2022/04/14 01:37:40;;;;;;;10.80;7.80;;;;;;;7.85;100.00;100643.16;5052413;28;20278;-78
2022/04/14 01:40:09;;;;;;;9.68;6.80;;;;;;;7.79;100.00;100624.88;5017075;28;20840;-79
2022/04/14 01:42:38;;;;;;;8.13;6.93;;;;;;;8.01;100.00;100640.28;5017315;28;20203;-80
2022/04/14 01:45:06;;;;;;;11.18;6.78;;;;;;;7.96;100.00;100640.13;5055600;28;20201;-77
2022/04/14 01:47:33;;;;;;;9.07;6.35;;;;;;;7.94;100.00;100643.47;5071542;28;20207;-78
2022/04/14 01:49:59;;;;;;;9.00;6.80;;;;;;;7.80;100.00;100639.56;5071766;28;20202;-78
2022/04/14 01:52:26;;;;;;;8.05;7.10;;;;;;;7.54;100.00;100594.75;5015398;28;20726;-78
2022/04/14 01:54:53;;;;;;;8.77;6.35;;;;;;;7.74;100.00;100631.59;5065791;28;20206;-77
2022/04/14 01:57:20;;;;;;;7.65;5.80;;;;;;;7.81;100.00;100642.16;5071762;28;20199;-78
2022/04/14 01:59:48;;;;;;;6.97;5.15;;;;;;;7.94;100.00;100636.63;5072209;28;20194;-79
2022/04/14 02:02:15;;;;;;;12.13;6.63;;;;;;;7.70;100.00;100612.56;5072024;28;20195;-77
2022/04/14 02:04:43;;;;;;;14.15;7.00;;;;;;;7.83;100.00;100635.38;5071800;28;20207;-78
2022/04/14 02:07:10;;;;;;;15.90;7.88;;;;;;;7.86;100.00;100644.91;5071759;28;20199;-78
2022/04/14 02:09:37;;;;;;;12.57;7.63;;;;;;;7.92;100.00;100633.09;5071641;28;20299;-78
2022/04/14 02:12:05;;;;;;;22.77;7.90;;;;;;;7.70;100.00;100588.44;5066251;28;20196;-78
2022/04/14 02:14:32;;;;;;;15.15;8.15;;;;;;;8.03;100.00;100654.13;5051511;28;20730;-78
2022/04/14 02:17:00;;;;;;;56.17;17.63;;;;;;;8.02;100.00;100652.38;5016534;28;20191;-78
2022/04/14 02:19:27;;;;;;;46.70;15.73;;;;;;;7.78;100.00;100642.06;5051401;28;20570;-79
2022/04/14 02:21:54;;;;;;;20.67;9.77;;;;;;;7.71;100.00;100645.25;5051683;28;20195;-79
2022/04/14 02:24:22;;;;;;;21.10;9.05;;;;;;;7.81;100.00;100641.31;5051351;28;20656;-79
2022/04/14 02:26:49;;;;;;;16.77;8.38;;;;;;;7.89;100.00;100645.91;5051606;28;20210;-80
2022/04/14 02:29:16;;;;;;;11.82;7.82;;;;;;;7.82;100.00;100649.09;5051572;28;20200;-76
2022/04/14 02:31:43;;;;;;;10.93;7.88;;;;;;;7.55;100.00;100642.09;5051310;28;20207;-78
2022/04/14 02:34:11;;;;;;;12.95;6.85;;;;;;;7.67;100.00;100655.44;5051350;28;20251;-77
2022/04/14 02:36:38;;;;;;;12.07;6.97;;;;;;;7.73;100.00;100655.66;5051242;28;20200;-78
2022/04/14 02:39:05;;;;;;;11.75;7.63;;;;;;;7.70;100.00;100652.97;5050938;28;20207;-78
2022/04/14 02:41:32;;;;;;;10.07;6.53;;;;;;;7.67;100.00;100647.69;5051258;28;20207;-78
2022/04/14 02:43:59;;;;;;;11.15;7.30;;;;;;;7.65;100.00;100649.31;5051165;28;20207;-78
2022/04/14 02:46:26;;;;;;;10.30;6.57;;;;;;;7.67;100.00;100656.28;5050955;28;20206;-78
2022/04/14 02:48:52;;;;;;;8.82;6.70;;;;;;;7.60;100.00;100636.25;5058797;28;20201;-78
2022/04/14 02:51:20;;;;;;;9.60;6.47;;;;;;;7.86;100.00;100660.41;5071929;28;20591;-79
2022/04/14 02:53:47;;;;;;;11.32;6.50;;;;;;;7.74;100.00;100655.69;5071770;28;20219;-80
2022/04/14 02:56:14;;;;;;;13.68;6.95;;;;;;;7.69;100.00;100657.25;5071516;28;20199;-77
2022/04/14 02:58:41;;;;;;;14.27;6.90;;;;;;;7.78;100.00;100661.84;5070611;28;20199;-78
2022/04/14 03:01:07;;;;;;;12.80;6.45;;;;;;;7.68;100.00;100658.06;5069041;28;20198;-77
2022/04/14 03:03:34;;;;;;;12.90;6.68;;;;;;;7.69;100.00;100664.09;5070133;28;20870;-77
2022/04/14 03:06:01;;;;;;;10.70;6.88;;;;;;;7.72;100.00;100659.03;5070155;28;20558;-78
2022/04/14 03:08:29;;;;;;;12.50;7.65;;;;;;;7.53;100.00;100623.09;5018338;28;20628;-77
2022/04/14 03:10:56;;;;;;;15.70;7.68;;;;;;;7.54;100.00;100655.81;5060165;28;20207;-78
2022/04/14 03:13:23;;;;;;;12.27;7.30;;;;;;;7.52;100.00;100662.63;5050423;28;20227;-78
2022/04/14 03:15:51;;;;;;;15.57;8.57;;;;;;;7.39;100.00;100667.31;5051039;28;20199;-77
2022/04/14 03:18:17;;;;;;;13.65;8.05;;;;;;;7.36;100.00;100667.22;5051231;28;20226;-77
2022/04/14 03:20:44;;;;;;;11.65;7.45;;;;;;;7.23;100.00;100639.22;5000513;28;20218;-77
2022/04/14 03:23:12;;;;;;;9.95;7.38;;;;;;;7.38;100.00;100667.28;5035957;28;20191;-79
2022/04/14 03:25:40;;;;;;;14.90;8.15;;;;;;;7.29;100.00;100669.50;5071396;28;20230;-78
2022/04/14 03:28:07;;;;;;;13.18;7.45;;;;;;;6.87;100.00;100673.91;5070605;28;20558;-78
2022/04/14 03:30:34;;;;;;;13.32;7.68;;;;;;;6.97;100.00;100665.72;5070707;28;20202;-78
2022/04/14 03:33:00;;;;;;;14.70;8.35;;;;;;;7.09;100.00;100680.78;5070506;28;20207;-79
2022/04/14 03:35:27;;;;;;;13.48;9.35;;;;;;;7.06;100.00;100676.41;5070859;28;20205;-79
2022/04/14 03:37:54;;;;;;;17.05;10.05;;;;;;;6.82;100.00;100670.25;5071079;28;20201;-78
2022/04/14 03:40:21;;;;;;;15.32;10.95;;;;;;;6.84;100.00;100678.94;5071364;28;20199;-78
2022/04/14 03:42:49;;;;;;;15.60;10.07;;;;;;;6.94;100.00;100681.06;5070990;28;20294;-79
2022/04/14 03:45:16;;;;;;;16.87;10.63;;;;;;;6.41;100.00;100593.94;5070650;28;20203;-78
2022/04/14 03:47:42;;;;;;;19.52;9.45;;;;;;;6.95;100.00;100685.41;5071253;28;20190;-78
2022/04/14 03:50:10;;;;;;;15.05;9.18;;;;;;;7.03;100.00;100690.88;5072717;28;20437;-79
2022/04/14 03:52:37;;;;;;;12.70;7.28;;;;;;;7.20;100.00;100684.66;5070570;28;20194;-78
2022/04/14 03:55:04;;;;;;;15.15;7.93;;;;;;;6.97;100.00;100611.56;5070666;28;20234;-79
2022/04/14 03:57:31;;;;;;;15.77;10.00;;;;;;;7.72;100.00;100697.75;5070618;28;20206;-78
2022/04/14 03:59:59;;;;;;;20.38;10.80;;;;;;;8.14;100.00;100704.44;5070686;28;20252;-79
2022/04/14 04:02:25;;;;;;;21.05;11.10;;;;;;;8.27;100.00;100691.13;5036544;28;20653;-78
2022/04/14 04:04:52;;;;;;;21.90;11.65;;;;;;;8.76;100.00;100705.69;5070176;28;20647;-78
2022/04/14 04:07:19;;;;;;;20.08;11.40;;;;;;;8.65;100.00;100625.22;5069946;28;20651;-77
2022/04/14 04:09:46;;;;;;;26.35;12.05;;;;;;;9.45;100.00;100710.44;5071003;28;20586;-77
2022/04/14 04:12:12;;;;;;;12.00;8.38;;;;;;;9.80;100.00;100698.50;5070569;28;20549;-76
2022/04/14 04:14:40;;;;;;;12.13;6.07;;;;;;;10.24;91.49;100707.50;5070551;28;20887;-79
2022/04/14 04:17:08;;;;;;;8.95;5.45;;;;;;;10.63;81.73;100718.00;5073909;28;20187;-79
2022/04/14 04:19:38;;;;;;;6.35;4.63;;;;;;;10.96;75.55;100725.72;5075272;28;20207;-78
2022/04/14 04:22:05;;;;;;;7.28;4.55;;;;;;;11.33;72.99;100710.16;5076753;28;20199;-78
2022/04/14 04:24:32;;;;;;;4.95;4.53;;;;;;;11.81;68.49;100705.13;5070946;28;20280;-79
2022/04/14 04:26:59;;;;;;;6.28;5.25;;;;;;;12.74;66.10;100730.22;5055583;28;20229;-78
2022/04/14 04:29:26;;;;;;;30.02;14.30;;;;;;;13.21;66.38;100734.50;5054634;28;20629;-79
2022/04/14 04:31:53;;;;;;;105.72;51.40;;;;;;;13.55;66.20;100727.16;5002326;28;20230;-77
2022/04/14 04:34:21;;;;;;;160.30;79.68;;;;;;;14.01;63.35;100726.88;5053306;28;20297;-76
2022/04/14 04:36:48;;;;;;;182.27;75.15;;;;;;;14.19;62.48;100720.97;5058065;28;20209;-79
2022/04/14 04:39:15;;;;;;;93.55;42.47;;;;;;;14.37;62.45;100722.09;5073464;28;20207;-78
2022/04/14 04:41:41;;;;;;;65.90;31.92;;;;;;;14.82;61.01;100737.28;5073545;28;20195;-77
2022/04/14 04:44:09;;;;;;;36.60;16.13;;;;;;;15.36;58.13;100752.47;5037853;28;20255;-79
2022/04/14 04:46:36;;;;;;;80.68;35.28;;;;;;;15.82;80.23;100719.63;5073387;28;20339;-76
2022/04/14 04:49:03;;;;;;;216.63;83.15;;;;;;;15.90;58.04;100745.81;5073087;28;20207;-77
2022/04/14 04:51:31;;;;;;;245.45;94.15;;;;;;;16.44;55.72;100752.09;5073261;28;20637;-76
2022/04/14 04:53:58;;;;;;;277.45;107.32;;;;;;;16.55;53.99;100698.00;5073250;28;20225;-77
2022/04/14 04:56:25;;;;;;;194.32;75.15;;;;;;;17.16;51.55;100749.50;5073186;28;20205;-78
2022/04/14 04:58:52;;;;;;;133.88;51.83;;;;;;;17.39;47.34;100757.34;5073102;28;20256;-78
2022/04/14 05:01:19;;;;;;;61.63;27.20;;;;;;;17.56;47.84;100759.91;5072401;28;20199;-79
2022/04/14 05:03:46;;;;;;;202.60;75.20;;;;;;;17.78;50.79;100774.75;5032665;28;20203;-78
2022/04/14 05:06:13;;;;;;;74.88;30.73;;;;;;;17.56;52.45;100765.16;5020010;28;20198;-77
2022/04/14 05:08:41;;;;;;;43.60;17.35;;;;;;;17.33;55.00;100768.72;5071347;28;20217;-77
2022/04/14 05:11:07;;;;;;;36.72;16.23;;;;;;;17.10;56.38;100762.63;5070767;28;20199;-75
2022/04/14 05:13:34;;;;;;;15.88;8.20;;;;;;;17.08;57.79;100768.75;5072292;28;20244;-81
2022/04/14 05:16:02;;;;;;;10.38;7.85;;;;;;;16.55;58.58;100747.75;5076381;28;20240;-80
2022/04/14 05:18:29;;;;;;;11.60;7.28;;;;;;;16.61;59.58;100784.44;5074971;28;20679;-80
2022/04/14 05:20:56;;;;;;;17.65;7.55;;;;;;;16.42;60.11;100764.28;5021475;28;20290;-81
2022/04/14 05:23:23;;;;;;;29.45;7.72;;;;;;;16.58;60.62;100780.06;5072623;28;20202;-78
2022/04/14 05:25:51;;;;;;;10.55;7.28;;;;;;;16.57;61.10;100782.66;5072741;28;20191;-80
2022/04/14 05:28:17;;;;;;;18.33;8.70;;;;;;;16.21;62.41;100780.78;5071751;28;20217;-79
2022/04/14 05:30:44;;;;;;;32.38;8.65;;;;;;;16.31;61.06;100762.50;5072880;28;20336;-80
2022/04/14 05:33:11;;;;;;;17.85;9.75;;;;;;;16.13;61.28;100774.66;5077180;28;20241;-80
2022/04/14 05:35:38;;;;;;;20.00;11.63;;;;;;;15.75;63.89;100783.22;5074052;28;20311;-80
2022/04/14 05:38:06;;;;;;;32.70;13.25;;;;;;;14.35;71.79;100789.00;5072796;28;20203;-79
2022/04/14 05:40:34;;;;;;;25.70;13.18;;;;;;;14.05;77.14;100800.78;5071587;28;20199;-80
2022/04/14 05:43:02;;;;;;;29.23;14.15;;;;;;;13.74;81.99;100804.72;5072410;28;20357;-76
2022/04/14 05:45:30;;;;;;;21.50;11.52;;;;;;;13.40;82.96;100793.84;5071647;28;20207;-78
2022/04/14 05:47:56;;;;;;;27.23;11.77;;;;;;;13.05;86.83;100786.28;5068279;28;20767;-77
2022/04/14 05:50:23;;;;;;;29.58;12.40;;;;;;;12.77;89.66;100771.94;5069726;28;20226;-77
2022/04/14 05:52:50;;;;;;;25.25;11.95;;;;;;;12.26;91.53;100751.06;5070421;28;20202;-76
2022/04/14 05:55:17;;;;;;;20.92;10.18;;;;;;;12.46;90.98;100793.03;5070877;28;20220;-76
2022/04/14 05:57:43;;;;;;;13.93;8.35;;;;;;;12.41;88.96;100799.03;5070400;28;20203;-75
2022/04/14 06:00:14;;;;;;;19.73;8.88;;;;;;;12.16;88.50;100791.63;5071226;28;20203;-77
2022/04/14 06:02:41;;;;;;;12.80;8.40;;;;;;;12.45;100.00;100799.09;5037706;28;20231;-77
2022/04/14 06:05:09;;;;;;;13.38;8.40;;;;;;;12.34;88.80;100771.16;5049552;28;20227;-75
2022/04/14 06:07:49;;;;;;;12.68;8.32;;;;;;;12.41;87.67;100767.81;5015621;28;20211;-77
2022/04/14 06:10:17;;;;;;;27.95;9.13;;;;;;;12.48;87.90;100794.84;5051214;28;20203;-77
2022/04/14 06:12:44;;;;;;;15.15;9.57;;;;;;;12.30;84.55;100789.28;5051484;28;20341;-77
2022/04/14 06:15:13;;;;;;;20.05;9.05;;;;;;;12.23;83.04;100766.63;5051038;28;20721;-77
2022/04/14 06:17:40;;;;;;;15.95;7.70;;;;;;;12.25;80.87;100789.19;5051382;28;20204;-77
2022/04/14 06:20:07;;;;;;;21.23;9.45;;;;;;;12.37;80.31;100781.63;5051295;28;20200;-77
2022/04/14 06:22:38;;;;;;;14.98;8.80;;;;;;;12.51;78.42;100762.78;5051058;28;20203;-78
2022/04/14 06:25:05;;;;;;;15.07;8.82;;;;;;;12.66;77.27;100789.97;5050675;28;20294;-77
2022/04/14 06:27:33;;;;;;;17.02;8.85;;;;;;;12.63;80.61;100787.28;5016380;28;20268;-77
2022/04/14 06:29:59;;;;;;;12.75;7.97;;;;;;;12.57;76.71;100788.91;5051213;28;20203;-76
2022/04/14 06:32:30;;;;;;;16.75;8.13;;;;;;;12.61;76.17;100789.00;5050969;28;20214;-78
2022/04/14 06:34:57;;;;;;;18.45;7.82;;;;;;;12.72;75.01;100789.19;5050562;28;20293;-78
2022/04/14 06:37:23;;;;;;;12.35;8.20;;;;;;;12.54;74.78;100794.06;5069386;28;20201;-76
2022/04/14 06:39:50;;;;;;;15.75;8.05;;;;;;;12.74;75.35;100801.38;5090962;28;20206;-77
2022/04/14 06:42:17;;;;;;;17.00;12.00;;;;;;;12.54;78.33;100804.47;5090881;28;20547;-78
2022/04/14 06:44:44;;;;;;;25.80;13.75;;;;;;;12.38;84.62;100783.38;5091274;28;20209;-77
2022/04/14 06:47:11;;;;;;;27.63;13.88;;;;;;;12.58;89.55;100801.97;5090845;28;20194;-77
2022/04/14 06:49:39;;;;;;;18.50;10.45;;;;;;;12.69;83.05;100805.63;5091044;28;20263;-78
2022/04/14 06:52:06;;;;;;;20.95;10.50;;;;;;;12.55;79.89;100801.03;5090856;28;20201;-77
2022/04/14 06:54:34;;;;;;;23.33;11.43;;;;;;;12.81;80.92;100794.53;5090639;28;20234;-77
2022/04/14 06:57:01;;;;;;;16.70;10.50;;;;;;;13.16;79.46;100793.44;5091042;28;20208;-79
2022/04/14 06:59:28;;;;;;;18.33;11.90;;;;;;;13.39;79.46;100801.63;5091073;28;20206;-78
2022/04/14 07:01:55;;;;;;;17.73;10.40;;;;;;;13.62;76.51;100799.34;5088212;28;20728;-78
2022/04/14 07:04:22;;;;;;;24.02;9.75;;;;;;;13.60;76.76;100801.03;5070152;28;20202;-78
2022/04/14 07:06:50;;;;;;;16.77;9.77;;;;;;;13.83;75.31;100805.75;5070566;28;20627;-79
2022/04/14 07:09:17;;;;;;;25.33;11.68;;;;;;;13.81;78.80;100801.34;5070702;28;20198;-77
2022/04/14 07:11:44;;;;;;;24.70;11.25;;;;;;;14.02;79.33;100812.03;5070524;28;20198;-78
2022/04/14 07:14:11;;;;;;;30.02;11.27;;;;;;;14.03;77.26;100812.91;5069941;28;20203;-78
2022/04/14 07:16:37;;;;;;;22.10;10.30;;;;;;;13.98;76.09;100815.50;5070462;28;20207;-77
2022/04/14 07:19:04;;;;;;;18.02;11.00;;;;;;;14.15;74.75;100819.19;5070263;28;20203;-79
2022/04/14 07:21:31;;;;;;;17.05;8.35;;;;;;;14.35;72.06;100822.03;5070364;28;20604;-79
2022/04/14 07:23:59;;;;;;;9.88;7.18;;;;;;;14.54;70.02;100817.91;5034726;28;20198;-77
2022/04/14 07:26:26;;;;;;;9.13;6.47;;;;;;;14.46;69.16;100796.06;5070218;28;20218;-78
2022/04/14 07:28:53;;;;;;;13.15;6.43;;;;;;;14.34;67.47;100818.56;5070316;28;20199;-78
2022/04/14 07:31:19;;;;;;;7.03;6.30;;;;;;;14.61;68.19;100828.44;5070441;28;20210;-78
2022/04/14 07:33:46;;;;;;;9.88;7.00;;;;;;;14.72;66.52;100823.31;5069788;28;20241;-79
2022/04/14 07:36:18;;;;;;;13.38;6.72;;;;;;;14.77;65.06;100824.22;5070157;28;20234;-79
2022/04/14 07:38:45;;;;;;;8.65;6.97;;;;;;;14.95;63.67;100831.41;5070380;28;20291;-79
2022/04/14 07:41:13;;;;;;;8.30;6.00;;;;;;;15.12;62.11;100825.47;5070164;28;20205;-79
2022/04/14 07:43:40;;;;;;;9.77;6.30;;;;;;;15.15;60.10;100804.56;5070128;28;20930;-78
2022/04/14 07:46:06;;;;;;;17.70;6.40;;;;;;;15.32;60.11;100829.09;5069970;28;20195;-78
2022/04/14 07:48:33;;;;;;;12.40;6.25;;;;;;;15.50;62.29;100822.28;5070097;28;20715;-75
2022/04/14 07:51:01;;;;;;;11.88;6.10;;;;;;;15.59;62.29;100817.13;5071971;28;20199;-79
2022/04/14 07:53:28;;;;;;;10.13;6.65;;;;;;;15.73;60.75;100821.53;5074273;28;20203;-79
2022/04/14 07:55:54;;;;;;;14.05;6.57;;;;;;;15.78;58.59;100795.44;5073536;28;20226;-78
2022/04/14 07:58:23;;;;;;;7.93;5.63;;;;;;;15.77;56.60;100772.75;5055084;28;20651;-80
2022/04/14 08:00:50;;;;;;;9.20;5.07;;;;;;;16.12;53.65;100826.13;5055570;28;20232;-80
2022/04/14 08:03:17;;;;;;;6.05;4.25;;;;;;;16.35;51.82;100820.97;5060017;28;20203;-78
2022/04/14 08:05:46;;;;;;;10.98;4.80;;;;;;;16.61;50.74;100826.31;5053547;28;20554;-79
2022/04/14 08:08:14;;;;;;;8.52;5.30;;;;;;;16.79;50.82;100822.00;5051868;28;20882;-80
2022/04/14 08:10:44;;;;;;;9.85;4.93;;;;;;;16.74;49.65;100815.88;5053526;28;20653;-79
2022/04/14 08:13:11;;;;;;;3.75;3.42;;;;;;;16.62;42.61;100820.22;5053061;28;20207;-79
2022/04/14 08:15:40;;;;;;;6.15;3.50;;;;;;;17.00;41.80;100815.91;5053687;28;20298;-81
2022/04/14 08:18:08;;;;;;;3.92;3.53;;;;;;;17.11;42.99;100808.94;5066455;28;20204;-76
2022/04/14 08:20:35;;;;;;;7.90;3.85;;;;;;;17.41;42.76;100829.00;5053003;28;20265;-79
2022/04/14 08:23:04;;;;;;;3.78;2.55;;;;;;;17.34;40.05;100822.88;5052512;28;20291;-79
2022/04/14 08:25:32;;;;;;;5.10;3.30;;;;;;;17.50;39.77;100828.13;5060858;28;20201;-78
2022/04/14 08:28:00;;;;;;;5.78;3.90;;;;;;;17.50;39.76;100817.63;5073216;28;20682;-78
2022/04/14 08:30:29;;;;;;;6.57;4.15;;;;;;;17.60;39.79;100824.63;5073695;28;20203;-80
2022/04/14 08:33:00;;;;;;;4.20;3.50;;;;;;;17.31;39.22;100812.41;5073632;28;20227;-78
2022/04/14 08:35:27;;;;;;;4.55;3.83;;;;;;;17.72;38.61;100825.50;5022005;28;20321;-79
2022/04/14 08:37:55;;;;;;;4.75;3.90;;;;;;;17.87;39.67;100826.34;5073515;28;20592;-77
2022/04/14 08:40:23;;;;;;;7.57;4.30;;;;;;;17.77;38.58;100822.84;5073643;28;20191;-80
2022/04/14 08:42:53;;;;;;;8.38;4.10;;;;;;;17.81;39.73;100825.47;5076852;28;20222;-82
2022/04/14 08:45:25;;;;;;;8.05;3.83;;;;;;;17.84;40.16;100816.72;5082010;28;20228;-82
2022/04/14 08:47:53;;;;;;;4.95;3.55;;;;;;;18.03;39.53;100821.03;5074087;28;20206;-76
2022/04/14 08:50:21;;;;;;;7.22;3.72;;;;;;;18.22;39.97;100825.34;5073436;28;20207;-83
2022/04/14 08:52:49;;;;;;;5.05;3.60;;;;;;;18.02;40.79;100808.78;5073355;28;20706;-76
2022/04/14 08:55:15;;;;;;;6.55;4.25;;;;;;;18.16;41.30;100812.22;5073254;28;20222;-81
2022/04/14 08:57:42;;;;;;;5.60;3.47;;;;;;;18.11;40.42;100777.25;5073246;28;20574;-80
2022/04/14 09:00:12;;;;;;;4.75;3.28;;;;;;;18.40;40.20;100794.63;5073173;28;20791;-79
2022/04/14 09:02:43;;;;;;;5.13;3.97;;;;;;;17.87;39.87;100766.88;5072997;28;20210;-81
2022/04/14 09:05:11;;;;;;;3.92;3.53;;;;;;;17.99;37.60;100794.81;5072898;28;20206;-80
2022/04/14 09:07:39;;;;;;;4.10;3.13;;;;;;;18.20;37.28;100786.84;5040051;28;20596;-81
2022/04/14 09:10:07;;;;;;;3.75;3.38;;;;;;;17.88;37.33;100794.84;5073007;28;20206;-80
2022/04/14 09:12:36;;;;;;;2.72;2.53;;;;;;;17.66;37.49;100788.78;5072912;28;20207;-82
2022/04/14 09:15:04;;;;;;;3.85;3.13;;;;;;;17.41;37.23;100744.25;5072818;28;20900;-80
2022/04/14 09:17:30;;;;;;;3.60;3.40;;;;;;;17.89;37.02;100801.84;5073110;28;20203;-81
2022/04/14 09:19:57;;;;;;;4.55;3.30;;;;;;;18.12;36.91;100805.25;5072893;28;20202;-80
2022/04/14 09:22:24;;;;;;;5.63;2.83;;;;;;;18.24;36.76;100794.69;5072753;28;20574;-80
2022/04/14 09:24:54;;;;;;;3.95;3.58;;;;;;;18.07;36.44;100720.41;5072832;28;20218;-81
2022/04/14 09:27:27;;;;;;;4.45;3.35;;;;;;;18.53;35.88;100770.06;5072648;28;20206;-80
2022/04/14 09:29:55;;;;;;;5.72;3.53;;;;;;;18.64;35.76;100781.38;5072948;28;20205;-81
2022/04/14 09:32:31;;;;;;;3.33;3.03;;;;;;;18.69;37.08;100785.69;5072826;28;20194;-80
2022/04/14 09:34:59;;;;;;;4.43;3.83;;;;;;;18.61;37.00;100784.03;5072660;28;20241;-81
2022/04/14 09:37:27;;;;;;;7.43;3.50;;;;;;;18.61;36.11;100784.03;5072420;28;20195;-83
2022/04/14 09:39:57;;;;;;;5.00;3.90;;;;;;;18.63;36.31;100777.00;5071982;28;20428;-81
2022/04/14 09:42:26;;;;;;;4.70;3.20;;;;;;;18.36;35.73;100762.25;5072025;28;20663;-79
2022/04/14 09:44:53;;;;;;;5.43;3.78;;;;;;;18.28;39.06;100754.41;5036848;28;20729;-75
2022/04/14 09:47:38;;;;;;;3.25;3.05;;;;;;;18.29;35.81;100779.81;5071809;28;20252;-79
2022/04/14 09:50:06;;;;;;;4.47;2.88;;;;;;;18.52;36.46;100776.19;5071842;28;20663;-81
2022/04/14 09:52:33;;;;;;;5.75;2.85;;;;;;;18.39;36.85;100771.88;5071693;28;20260;-79
2022/04/14 09:55:09;;;;;;;3.55;3.20;;;;;;;18.38;36.97;100776.25;5020122;28;20203;-78
2022/04/14 09:57:36;;;;;;;4.40;3.10;;;;;;;18.41;37.71;100770.13;5071457;28;20202;-79
2022/04/14 10:00:04;;;;;;;3.75;3.22;;;;;;;18.30;35.91;100765.78;5036452;28;20207;-79
2022/04/14 10:02:34;;;;;;;3.28;2.92;;;;;;;18.20;36.40;100761.47;5071585;28;20257;-79
2022/04/14 10:05:02;;;;;;;4.82;3.20;;;;;;;18.31;36.89;100770.16;5071229;28;20195;-79
2022/04/14 10:07:29;;;;;;;4.75;3.03;;;;;;;18.26;36.37;100740.41;5071678;28;20280;-78
2022/04/14 10:09:56;;;;;;;4.50;3.20;;;;;;;18.57;36.91;100767.41;5071838;28;20211;-79
2022/04/14 10:12:33;;;;;;;4.43;2.92;;;;;;;18.77;36.71;100765.50;5036071;28;20199;-78
2022/04/14 10:15:07;;;;;;;5.55;3.05;;;;;;;18.73;36.31;100765.53;5035287;28;20202;-79
2022/04/14 10:17:37;;;;;;;9.05;3.45;;;;;;;18.94;36.86;100768.00;5070898;28;20199;-79
2022/04/14 10:20:05;;;;;;;6.70;3.40;;;;;;;18.99;36.70;100760.97;5071286;28;20666;-80
2022/04/14 10:22:34;;;;;;;3.50;3.20;;;;;;;18.88;35.08;100765.41;5035494;28;20187;-80
2022/04/14 10:25:02;;;;;;;6.30;3.45;;;;;;;18.94;35.28;100772.41;5071281;28;20644;-77
2022/04/14 10:27:30;;;;;;;3.92;3.33;;;;;;;18.78;35.12;100769.00;5071280;28;20210;-80
2022/04/14 10:29:59;;;;;;;4.97;3.13;;;;;;;18.73;36.16;100763.78;5070843;28;20209;-79
2022/04/14 10:32:26;;;;;;;4.65;3.33;;;;;;;18.09;35.60;100699.38;5071287;28;20736;-80
2022/04/14 10:34:53;;;;;;;9.35;3.35;;;;;;;18.61;36.10;100761.25;5070924;28;20235;-80
2022/04/14 10:37:26;;;;;;;7.40;4.03;;;;;;;18.72;35.52;100748.03;5070858;28;20222;-78
2022/04/14 10:39:55;;;;;;;3.95;3.13;;;;;;;18.89;35.63;100758.41;5071120;28;20198;-79
2022/04/14 10:42:25;;;;;;;3.50;3.20;;;;;;;18.94;35.32;100761.88;5070880;28;20205;-78
2022/04/14 10:44:54;;;;;;;3.97;3.40;;;;;;;18.98;35.67;100764.47;5070665;28;20215;-78
2022/04/14 10:47:53;;;;;;;4.72;2.67;;;;;;;19.01;35.12;100763.59;5070945;28;20698;-79
2022/04/14 10:50:22;;;;;;;7.45;3.10;;;;;;;18.99;34.48;100771.47;5070734;28;20240;-79
2022/04/14 10:53:06;;;;;;;3.40;2.83;;;;;;;18.89;34.21;100751.41;5070449;28;20213;-80
2022/04/14 10:55:38;;;;;;;5.55;3.50;;;;;;;19.02;34.65;100766.19;5070849;28;20269;-78
2022/04/14 10:58:05;;;;;;;4.53;2.88;;;;;;;19.16;34.48;100761.66;5018835;28;20212;-79
2022/04/14 11:00:38;;;;;;;3.05;2.70;;;;;;;19.20;34.31;100755.50;5070596;28;20740;-80
2022/04/14 11:03:09;;;;;;;3.35;2.53;;;;;;;19.03;33.99;100733.75;5070500;28;20252;-78
2022/04/14 11:05:40;;;;;;;5.20;3.42;;;;;;;19.35;34.28;100753.59;5070431;28;20589;-79
2022/04/14 11:08:27;;;;;;;7.05;3.05;;;;;;;19.43;34.49;100759.72;5070409;28;20195;-79
2022/04/14 11:10:55;;;;;;;3.58;2.90;;;;;;;19.41;34.15;100758.81;5070560;28;20206;-82
2022/04/14 11:13:23;;;;;;;4.07;3.78;;;;;;;19.43;34.20;100764.97;5068281;28;20194;-80
2022/04/14 11:15:50;;;;;;;6.55;3.38;;;;;;;19.55;35.13;100749.91;5070245;28;20313;-78
2022/04/14 11:18:18;;;;;;;4.53;4.05;;;;;;;19.63;34.24;100760.34;5070573;28;20297;-79
2022/04/14 11:20:56;;;;;;;10.13;3.80;;;;;;;19.59;33.94;100758.63;5070367;28;20658;-79
2022/04/14 11:23:29;;;;;;;4.60;3.47;;;;;;;19.42;34.31;100735.16;5070137;28;20207;-80